sensor_id;sensor_type;location;lat;lon;timestamp;pressure;altitude;pressure_sealevel;temperature;humidity
36692;BME280;22678;52.052;4.242;2022-08-30T00:01:29;102236.91;;;18.91;71.05
36692;BME280;22678;52.052;4.242;2022-08-30T00:03:55;102231.69;;;18.86;70.86
36692;BME280;22678;52.052;4.242;2022-08-30T00:06:23;102227.28;;;18.82;71.12
36692;BME280;22678;52.052;4.242;2022-08-30T00:08:49;102229.91;;;18.84;71.16
36692;BME280;22678;52.052;4.242;2022-08-30T00:11:18;102222.88;;;18.80;71.34
36692;BME280;22678;52.052;4.242;2022-08-30T00:13:46;102226.47;;;18.79;71.49
36692;BME280;22678;52.052;4.242;2022-08-30T00:16:14;102230.06;;;18.78;71.63
36692;BME280;22678;52.052;4.242;2022-08-30T00:18:39;102216.00;;;18.69;71.68
36692;BME280;22678;52.052;4.242;2022-08-30T00:21:05;102222.16;;;18.73;71.69
36692;BME280;22678;52.052;4.242;2022-08-30T00:23:30;102222.28;;;18.65;71.86
36692;BME280;22678;52.052;4.242;2022-08-30T00:25:56;102223.16;;;18.67;72.01
36692;BME280;22678;52.052;4.242;2022-08-30T00:28:22;102219.63;;;18.65;72.02
36692;BME280;22678;52.052;4.242;2022-08-30T00:30:48;102217.94;;;18.61;72.05
36692;BME280;22678;52.052;4.242;2022-08-30T00:33:14;102210.13;;;18.52;72.36
36692;BME280;22678;52.052;4.242;2022-08-30T00:35:39;102228.59;;;18.61;72.33
36692;BME280;22678;52.052;4.242;2022-08-30T00:38:07;102232.19;;;18.59;72.48
36692;BME280;22678;52.052;4.242;2022-08-30T00:40:33;102209.34;;;18.47;72.52
36692;BME280;22678;52.052;4.242;2022-08-30T00:43:01;102220.78;;;18.52;72.70
36692;BME280;22678;52.052;4.242;2022-08-30T00:45:31;102216.50;;;18.43;72.58
36692;BME280;22678;52.052;4.242;2022-08-30T00:47:58;102226.19;;;18.47;73.00
36692;BME280;22678;52.052;4.242;2022-08-30T00:50:45;102225.31;;;18.47;73.12
36692;BME280;22678;52.052;4.242;2022-08-30T00:53:14;102223.63;;;18.43;73.03
36692;BME280;22678;52.052;4.242;2022-08-30T00:55:41;102229.84;;;18.42;73.00
36692;BME280;22678;52.052;4.242;2022-08-30T00:58:10;102226.34;;;18.39;73.56
36692;BME280;22678;52.052;4.242;2022-08-30T01:00:37;102224.63;;;18.37;73.34
36692;BME280;22678;52.052;4.242;2022-08-30T01:03:02;102217.66;;;18.30;73.51
36692;BME280;22678;52.052;4.242;2022-08-30T01:05:28;102217.66;;;18.30;73.48
36692;BME280;22678;52.052;4.242;2022-08-30T01:07:53;102227.34;;;18.34;73.54
36692;BME280;22678;52.052;4.242;2022-08-30T01:10:19;102215.00;;;18.28;73.58
36692;BME280;22678;52.052;4.242;2022-08-30T01:12:45;102225.59;;;18.31;73.50
36692;BME280;22678;52.052;4.242;2022-08-30T01:15:12;102229.19;;;18.30;73.83
36692;BME280;22678;52.052;4.242;2022-08-30T01:17:39;102217.72;;;18.25;73.85
36692;BME280;22678;52.052;4.242;2022-08-30T01:20:11;102229.25;;;18.27;73.80
36692;BME280;22678;52.052;4.242;2022-08-30T01:25:21;102232.88;;;18.23;74.10
36692;BME280;22678;52.052;4.242;2022-08-30T01:27:51;102235.56;;;18.21;74.25
36692;BME280;22678;52.052;4.242;2022-08-30T01:30:17;102228.50;;;18.19;74.29
36692;BME280;22678;52.052;4.242;2022-08-30T01:32:45;102223.34;;;18.10;74.57
36692;BME280;22678;52.052;4.242;2022-08-30T01:35:14;102232.03;;;18.19;74.61
36692;BME280;22678;52.052;4.242;2022-08-30T01:37:40;102229.47;;;18.13;74.71
36692;BME280;22678;52.052;4.242;2022-08-30T01:40:07;102225.00;;;18.17;74.63
36692;BME280;22678;52.052;4.242;2022-08-30T01:42:33;102218.00;;;18.11;74.69
36692;BME280;22678;52.052;4.242;2022-08-30T01:44:58;102219.75;;;18.14;74.73
36692;BME280;22678;52.052;4.242;2022-08-30T01:47:24;102216.25;;;18.09;74.81
36692;BME280;22678;52.052;4.242;2022-08-30T01:49:49;102215.38;;;18.10;74.89
36692;BME280;22678;52.052;4.242;2022-08-30T01:52:16;102201.34;;;17.98;74.74
36692;BME280;22678;52.052;4.242;2022-08-30T01:54:43;102215.41;;;18.07;74.97
36692;BME280;22678;52.052;4.242;2022-08-30T01:57:12;102208.34;;;18.06;75.25
36692;BME280;22678;52.052;4.242;2022-08-30T01:59:39;102220.75;;;18.07;75.11
36692;BME280;22678;52.052;4.242;2022-08-30T02:02:05;102218.13;;;18.05;75.14
36692;BME280;22678;52.052;4.242;2022-08-30T02:04:31;102212.91;;;17.97;75.25
36692;BME280;22678;52.052;4.242;2022-08-30T02:06:56;102220.81;;;18.00;75.39
36692;BME280;22678;52.052;4.242;2022-08-30T02:09:22;102222.72;;;17.95;75.20
36692;BME280;22678;52.052;4.242;2022-08-30T02:11:47;102227.97;;;17.98;75.43
36692;BME280;22678;52.052;4.242;2022-08-30T02:14:13;102205.91;;;17.89;75.43
36692;BME280;22678;52.052;4.242;2022-08-30T02:16:39;102218.38;;;17.90;75.50
36692;BME280;22678;52.052;4.242;2022-08-30T02:19:05;102215.69;;;17.90;75.38
36692;BME280;22678;52.052;4.242;2022-08-30T02:21:31;102221.00;;;17.91;75.69
36692;BME280;22678;52.052;4.242;2022-08-30T02:23:56;102217.47;;;17.89;75.81
36692;BME280;22678;52.052;4.242;2022-08-30T02:26:22;102212.16;;;17.88;75.75
36692;BME280;22678;52.052;4.242;2022-08-30T02:28:48;102224.53;;;17.93;75.83
36692;BME280;22678;52.052;4.242;2022-08-30T02:31:14;102221.88;;;17.89;75.93
36692;BME280;22678;52.052;4.242;2022-08-30T02:33:39;102217.47;;;17.89;76.03
36692;BME280;22678;52.052;4.242;2022-08-30T02:36:05;102224.53;;;17.89;76.28
36692;BME280;22678;52.052;4.242;2022-08-30T02:38:31;102214.81;;;17.89;76.23
36692;BME280;22678;52.052;4.242;2022-08-30T02:40:57;102218.38;;;17.86;76.37
36692;BME280;22678;52.052;4.242;2022-08-30T02:43:23;102212.19;;;17.86;76.27
36692;BME280;22678;52.052;4.242;2022-08-30T02:45:48;102191.03;;;17.77;76.50
36692;BME280;22678;52.052;4.242;2022-08-30T02:48:14;102189.31;;;17.76;76.60
36692;BME280;22678;52.052;4.242;2022-08-30T02:50:45;102191.06;;;17.75;76.58
36692;BME280;22678;52.052;4.242;2022-08-30T02:53:12;102206.94;;;17.83;76.33
36692;BME280;22678;52.052;4.242;2022-08-30T02:55:37;102198.19;;;17.75;76.30
36692;BME280;22678;52.052;4.242;2022-08-30T02:58:03;102208.72;;;17.81;76.59
36692;BME280;22678;52.052;4.242;2022-08-30T03:00:29;102203.47;;;17.76;76.62
36692;BME280;22678;52.052;4.242;2022-08-30T03:02:54;102191.09;;;17.74;76.62
36692;BME280;22678;52.052;4.242;2022-08-30T03:05:19;102190.28;;;17.70;76.62
36692;BME280;22678;52.052;4.242;2022-08-30T03:07:45;102205.28;;;17.76;76.50
36692;BME280;22678;52.052;4.242;2022-08-30T03:10:13;102199.06;;;17.74;76.56
36692;BME280;22678;52.052;4.242;2022-08-30T03:12:38;102179.78;;;17.62;76.66
36692;BME280;22678;52.052;4.242;2022-08-30T03:15:06;102191.19;;;17.69;76.64
36692;BME280;22678;52.052;4.242;2022-08-30T03:17:32;102196.47;;;17.71;76.67
36692;BME280;22678;52.052;4.242;2022-08-30T03:19:58;102180.69;;;17.60;76.65
36692;BME280;22678;52.052;4.242;2022-08-30T03:22:26;102177.13;;;17.62;76.79
36692;BME280;22678;52.052;4.242;2022-08-30T03:24:51;102178.84;;;17.63;76.90
36692;BME280;22678;52.052;4.242;2022-08-30T03:27:17;102193.91;;;17.64;76.96
36692;BME280;22678;52.052;4.242;2022-08-30T03:29:42;102182.44;;;17.62;77.00
36692;BME280;22678;52.052;4.242;2022-08-30T03:32:07;102191.28;;;17.63;77.05
36692;BME280;22678;52.052;4.242;2022-08-30T03:34:33;102178.06;;;17.58;76.97
36692;BME280;22678;52.052;4.242;2022-08-30T03:36:58;102184.28;;;17.57;76.95
36692;BME280;22678;52.052;4.242;2022-08-30T03:39:26;102174.50;;;17.58;76.81
36692;BME280;22678;52.052;4.242;2022-08-30T03:41:52;102168.41;;;17.51;77.03
36692;BME280;22678;52.052;4.242;2022-08-30T03:44:18;102182.44;;;17.59;76.85
36692;BME280;22678;52.052;4.242;2022-08-30T03:46:43;102183.38;;;17.58;77.01
36692;BME280;22678;52.052;4.242;2022-08-30T03:49:09;102185.13;;;17.58;76.75
36692;BME280;22678;52.052;4.242;2022-08-30T03:51:34;102175.47;;;17.55;76.68
36692;BME280;22678;52.052;4.242;2022-08-30T03:54:00;102183.38;;;17.58;76.86
36692;BME280;22678;52.052;4.242;2022-08-30T03:56:26;102178.13;;;17.55;76.73
36692;BME280;22678;52.052;4.242;2022-08-30T03:58:51;102168.47;;;17.48;76.85
36692;BME280;22678;52.052;4.242;2022-08-30T04:01:17;102171.09;;;17.51;76.59
36692;BME280;22678;52.052;4.242;2022-08-30T04:03:42;102167.59;;;17.46;76.81
36692;BME280;22678;52.052;4.242;2022-08-30T04:06:07;102183.47;;;17.54;76.80
36692;BME280;22678;52.052;4.242;2022-08-30T04:08:33;102180.81;;;17.52;76.67
36692;BME280;22678;52.052;4.242;2022-08-30T04:10:59;102164.13;;;17.42;76.63
36692;BME280;22678;52.052;4.242;2022-08-30T04:13:27;102174.66;;;17.48;76.74
36692;BME280;22678;52.052;4.242;2022-08-30T04:15:52;102170.34;;;17.40;76.75
36692;BME280;22678;52.052;4.242;2022-08-30T04:18:18;102179.22;;;17.42;76.64
36692;BME280;22678;52.052;4.242;2022-08-30T04:20:43;102173.03;;;17.40;76.74
36692;BME280;22678;52.052;4.242;2022-08-30T04:23:09;102162.50;;;17.32;76.61
36692;BME280;22678;52.052;4.242;2022-08-30T04:25:37;102172.19;;;17.38;76.70
36692;BME280;22678;52.052;4.242;2022-08-30T04:28:03;102172.22;;;17.34;76.62
36692;BME280;22678;52.052;4.242;2022-08-30T04:30:28;102177.59;;;17.31;76.70
36692;BME280;22678;52.052;4.242;2022-08-30T04:32:54;102179.41;;;17.28;76.43
36692;BME280;22678;52.052;4.242;2022-08-30T04:35:19;102181.22;;;17.26;76.81
36692;BME280;22678;52.052;4.242;2022-08-30T04:37:45;102187.34;;;17.29;76.91
36692;BME280;22678;52.052;4.242;2022-08-30T04:40:11;102181.28;;;17.21;76.88
36692;BME280;22678;52.052;4.242;2022-08-30T04:42:38;102195.44;;;17.23;76.83
36692;BME280;22678;52.052;4.242;2022-08-30T04:45:07;102196.28;;;17.25;76.75
36692;BME280;22678;52.052;4.242;2022-08-30T04:47:33;102198.97;;;17.22;76.87
36692;BME280;22678;52.052;4.242;2022-08-30T04:49:58;102198.13;;;17.20;76.96
36692;BME280;22678;52.052;4.242;2022-08-30T04:52:24;102201.69;;;17.19;77.00
36692;BME280;22678;52.052;4.242;2022-08-30T04:54:56;102207.88;;;17.18;76.93
36692;BME280;22678;52.052;4.242;2022-08-30T04:57:23;102214.16;;;17.15;76.97
36692;BME280;22678;52.052;4.242;2022-08-30T04:59:48;102194.81;;;17.03;77.10
36692;BME280;22678;52.052;4.242;2022-08-30T05:02:14;102208.06;;;17.06;77.18
36692;BME280;22678;52.052;4.242;2022-08-30T05:04:39;102217.75;;;17.11;77.18
36692;BME280;22678;52.052;4.242;2022-08-30T05:07:28;102215.97;;;17.10;77.39
36692;BME280;22678;52.052;4.242;2022-08-30T05:09:53;102211.63;;;17.05;77.67
36692;BME280;22678;52.052;4.242;2022-08-30T05:12:19;102206.41;;;16.98;77.44
36692;BME280;22678;52.052;4.242;2022-08-30T05:14:44;102214.34;;;17.00;77.23
36692;BME280;22678;52.052;4.242;2022-08-30T05:17:09;102228.44;;;17.07;77.53
36692;BME280;22678;52.052;4.242;2022-08-30T05:19:35;102226.75;;;17.01;77.43
36692;BME280;22678;52.052;4.242;2022-08-30T05:22:00;102229.41;;;16.99;77.66
36692;BME280;22678;52.052;4.242;2022-08-30T05:24:25;102217.06;;;16.95;77.48
36692;BME280;22678;52.052;4.242;2022-08-30T05:26:50;102232.06;;;16.99;77.54
36692;BME280;22678;52.052;4.242;2022-08-30T05:29:16;102220.63;;;16.94;77.61
36692;BME280;22678;52.052;4.242;2022-08-30T05:31:42;102236.41;;;17.07;77.70
36692;BME280;22678;52.052;4.242;2022-08-30T05:34:09;102233.81;;;17.04;77.68
36692;BME280;22678;52.052;4.242;2022-08-30T05:36:35;102232.03;;;17.03;77.81
36692;BME280;22678;52.052;4.242;2022-08-30T05:39:01;102232.00;;;17.04;77.97
36692;BME280;22678;52.052;4.242;2022-08-30T05:41:27;102222.34;;;16.98;78.16
36692;BME280;22678;52.052;4.242;2022-08-30T05:43:54;102239.09;;;17.05;78.04
36692;BME280;22678;52.052;4.242;2022-08-30T05:46:20;102224.16;;;16.96;78.16
36692;BME280;22678;52.052;4.242;2022-08-30T05:48:46;102217.84;;;17.05;78.19
36692;BME280;22678;52.052;4.242;2022-08-30T05:51:15;102237.16;;;17.15;78.04
36692;BME280;22678;52.052;4.242;2022-08-30T05:53:42;102240.66;;;17.20;78.31
36692;BME280;22678;52.052;4.242;2022-08-30T05:56:10;102223.00;;;17.14;78.06
36692;BME280;22678;52.052;4.242;2022-08-30T05:58:36;102222.09;;;17.17;77.90
36692;BME280;22678;52.052;4.242;2022-08-30T06:01:01;102231.78;;;17.23;77.80
36692;BME280;22678;52.052;4.242;2022-08-30T06:03:27;102207.19;;;17.07;77.98
36692;BME280;22678;52.052;4.242;2022-08-30T06:05:53;102240.56;;;17.28;77.86
36692;BME280;22678;52.052;4.242;2022-08-30T06:08:18;102236.09;;;17.28;77.99
36692;BME280;22678;52.052;4.242;2022-08-30T06:10:44;102236.09;;;17.28;77.76
36692;BME280;22678;52.052;4.242;2022-08-30T06:13:09;102250.19;;;17.37;77.78
36692;BME280;22678;52.052;4.242;2022-08-30T06:15:35;102243.06;;;17.37;77.59
36692;BME280;22678;52.052;4.242;2022-08-30T06:18:01;102247.44;;;17.43;77.21
36692;BME280;22678;52.052;4.242;2022-08-30T06:20:26;102251.75;;;17.50;77.32
36692;BME280;22678;52.052;4.242;2022-08-30T06:22:51;102238.38;;;17.55;77.19
36692;BME280;22678;52.052;4.242;2022-08-30T06:25:17;102246.84;;;17.80;76.99
36692;BME280;22678;52.052;4.242;2022-08-30T06:27:42;102234.41;;;17.83;76.44
36692;BME280;22678;52.052;4.242;2022-08-30T06:30:08;102234.25;;;17.94;76.35
36692;BME280;22678;52.052;4.242;2022-08-30T06:32:35;102243.00;;;18.02;75.89
36692;BME280;22678;52.052;4.242;2022-08-30T06:35:01;102234.19;;;17.97;75.72
36692;BME280;22678;52.052;4.242;2022-08-30T06:37:27;102235.94;;;18.00;75.43
36692;BME280;22678;52.052;4.242;2022-08-30T06:39:52;102241.13;;;18.08;75.48
36692;BME280;22678;52.052;4.242;2022-08-30T06:42:17;102249.09;;;18.08;74.97
36692;BME280;22678;52.052;4.242;2022-08-30T06:44:43;102231.47;;;18.00;74.90
36692;BME280;22678;52.052;4.242;2022-08-30T06:47:09;102237.56;;;18.09;74.80
36692;BME280;22678;52.052;4.242;2022-08-30T06:49:35;102238.44;;;18.08;74.51
36692;BME280;22678;52.052;4.242;2022-08-30T06:52:00;102227.84;;;18.04;74.42
36692;BME280;22678;52.052;4.242;2022-08-30T06:54:25;102239.25;;;18.14;74.38
36692;BME280;22678;52.052;4.242;2022-08-30T06:56:51;102234.47;;;18.33;74.08
36692;BME280;22678;52.052;4.242;2022-08-30T06:59:16;102233.19;;;18.53;73.49
36692;BME280;22678;52.052;4.242;2022-08-30T07:01:41;102245.97;;;18.81;72.54
36692;BME280;22678;52.052;4.242;2022-08-30T07:04:07;102227.91;;;18.97;71.68
36692;BME280;22678;52.052;4.242;2022-08-30T07:06:32;102218.91;;;19.02;70.67
36692;BME280;22678;52.052;4.242;2022-08-30T07:08:58;102230.84;;;19.25;69.84
36692;BME280;22678;52.052;4.242;2022-08-30T07:11:31;102231.34;;;19.42;69.17
36692;BME280;22678;52.052;4.242;2022-08-30T07:13:57;102225.63;;;19.58;68.34
36692;BME280;22678;52.052;4.242;2022-08-30T07:16:23;102209.47;;;19.66;67.87
36692;BME280;22678;52.052;4.242;2022-08-30T07:18:48;102231.09;;;19.91;67.24
36692;BME280;22678;52.052;4.242;2022-08-30T07:21:41;102235.13;;;20.07;66.66
36692;BME280;22678;52.052;4.242;2022-08-30T07:24:11;102228.53;;;20.21;66.19
36692;BME280;22678;52.052;4.242;2022-08-30T07:26:44;102235.25;;;20.36;65.64
36692;BME280;22678;52.052;4.242;2022-08-30T07:29:14;102238.56;;;20.45;64.94
36692;BME280;22678;52.052;4.242;2022-08-30T07:31:41;102235.59;;;20.56;64.24
36692;BME280;22678;52.052;4.242;2022-08-30T07:34:07;102241.59;;;20.66;63.42
36692;BME280;22678;52.052;4.242;2022-08-30T07:36:34;102245.00;;;20.71;63.24
36692;BME280;22678;52.052;4.242;2022-08-30T07:39:00;102244.03;;;20.74;62.87
36692;BME280;22678;52.052;4.242;2022-08-30T07:41:28;102241.94;;;20.85;62.93
36692;BME280;22678;52.052;4.242;2022-08-30T07:46:20;102239.88;;;20.95;62.12
36692;BME280;22678;52.052;4.242;2022-08-30T07:48:46;102243.94;;;21.08;61.43
36692;BME280;22678;52.052;4.242;2022-08-30T07:51:14;102250.47;;;21.28;61.43
36692;BME280;22678;52.052;4.242;2022-08-30T07:53:40;102260.03;;;21.37;60.54
36692;BME280;22678;52.052;4.242;2022-08-30T07:56:05;102275.66;;;21.50;59.94
36692;BME280;22678;52.052;4.242;2022-08-30T07:58:31;102263.09;;;21.54;58.85
36692;BME280;22678;52.052;4.242;2022-08-30T08:00:57;102263.84;;;21.58;58.00
36692;BME280;22678;52.052;4.242;2022-08-30T08:03:25;102252.47;;;21.49;57.52
36692;BME280;22678;52.052;4.242;2022-08-30T08:05:51;102259.47;;;21.55;57.34
36692;BME280;22678;52.052;4.242;2022-08-30T08:08:17;102254.84;;;21.60;56.99
36692;BME280;22678;52.052;4.242;2022-08-30T08:10:43;102265.03;;;21.76;56.67
36692;BME280;22678;52.052;4.242;2022-08-30T08:13:09;102258.63;;;21.81;56.23
36692;BME280;22678;52.052;4.242;2022-08-30T08:15:34;102260.91;;;21.94;55.50
36692;BME280;22678;52.052;4.242;2022-08-30T08:18:00;102249.47;;;21.88;54.97
36692;BME280;22678;52.052;4.242;2022-08-30T08:20:25;102258.19;;;21.95;55.05
36692;BME280;22678;52.052;4.242;2022-08-30T08:22:51;102271.31;;;22.03;54.08
36692;BME280;22678;52.052;4.242;2022-08-30T08:25:17;102266.81;;;22.03;53.67
36692;BME280;22678;52.052;4.242;2022-08-30T08:27:46;102266.59;;;22.10;53.30
36692;BME280;22678;52.052;4.242;2022-08-30T08:30:11;102264.66;;;22.15;52.74
36692;BME280;22678;52.052;4.242;2022-08-30T08:32:37;102247.59;;;22.17;53.10
36692;BME280;22678;52.052;4.242;2022-08-30T08:35:03;102263.94;;;22.36;53.08
36692;BME280;22678;52.052;4.242;2022-08-30T08:37:28;102271.47;;;22.50;52.47
36692;BME280;22678;52.052;4.242;2022-08-30T08:39:54;102264.25;;;22.52;51.33
36692;BME280;22678;52.052;4.242;2022-08-30T08:45:03;102266.97;;;22.76;50.50
36692;BME280;22678;52.052;4.242;2022-08-30T08:50:39;102271.13;;;23.10;50.57
36692;BME280;22678;52.052;4.242;2022-08-30T08:53:29;102252.78;;;23.21;49.64
36692;BME280;22678;52.052;4.242;2022-08-30T08:56:01;102255.91;;;23.33;49.66
36692;BME280;22678;52.052;4.242;2022-08-30T08:58:30;102258.81;;;23.50;49.47
36692;BME280;22678;52.052;4.242;2022-08-30T09:00:57;102257.00;;;23.51;48.42
36692;BME280;22678;52.052;4.242;2022-08-30T09:03:25;102258.56;;;23.56;47.38
36692;BME280;22678;52.052;4.242;2022-08-30T09:05:51;102260.06;;;23.41;46.79
36692;BME280;22678;52.052;4.242;2022-08-30T09:08:18;102213.03;;;23.07;46.79
36692;BME280;22678;52.052;4.242;2022-08-30T09:13:22;102257.19;;;23.46;47.31
36692;BME280;22678;52.052;4.242;2022-08-30T09:15:48;102258.28;;;23.62;47.22
36692;BME280;22678;52.052;4.242;2022-08-30T09:18:14;102251.88;;;23.67;46.51
36692;BME280;22678;52.052;4.242;2022-08-30T09:20:43;102236.56;;;23.69;46.43
36692;BME280;22678;52.052;4.242;2022-08-30T09:25:50;102256.06;;;23.96;46.83
36692;BME280;22678;52.052;4.242;2022-08-30T09:28:22;102247.81;;;24.01;46.48
36692;BME280;22678;52.052;4.242;2022-08-30T09:30:59;102265.41;;;24.08;45.82
36692;BME280;22678;52.052;4.242;2022-08-30T09:33:24;102252.91;;;24.07;45.68
36692;BME280;22678;52.052;4.242;2022-08-30T09:35:50;102245.69;;;24.09;46.18
36692;BME280;22678;52.052;4.242;2022-08-30T09:38:20;102270.13;;;24.23;46.05
36692;BME280;22678;52.052;4.242;2022-08-30T09:40:52;102263.41;;;24.34;45.97
36692;BME280;22678;52.052;4.242;2022-08-30T09:43:30;102266.56;;;24.43;45.19
36692;BME280;22678;52.052;4.242;2022-08-30T09:48:34;102251.53;;;24.60;44.85
36692;BME280;22678;52.052;4.242;2022-08-30T09:53:55;102269.78;;;24.93;44.25
36692;BME280;22678;52.052;4.242;2022-08-30T09:59:38;102246.72;;;25.06;43.80
36692;BME280;22678;52.052;4.242;2022-08-30T10:05:47;102254.66;;;25.28;43.82
36692;BME280;22678;52.052;4.242;2022-08-30T10:08:19;102255.97;;;25.39;42.43
36692;BME280;22678;52.052;4.242;2022-08-30T10:10:57;102248.69;;;25.41;42.07
36692;BME280;22678;52.052;4.242;2022-08-30T10:19:26;102250.81;;;25.70;41.19
36692;BME280;22678;52.052;4.242;2022-08-30T10:22:05;102251.31;;;25.79;40.20
36692;BME280;22678;52.052;4.242;2022-08-30T10:24:45;102241.31;;;25.81;40.00
36692;BME280;22678;52.052;4.242;2022-08-30T10:27:24;102250.66;;;25.91;39.92
36692;BME280;22678;52.052;4.242;2022-08-30T10:29:54;102255.69;;;25.99;38.42
36692;BME280;22678;52.052;4.242;2022-08-30T10:32:28;102263.41;;;26.07;38.54
36692;BME280;22678;52.052;4.242;2022-08-30T10:35:09;102258.72;;;26.10;37.81
36692;BME280;22678;52.052;4.242;2022-08-30T10:37:44;102260.47;;;26.11;37.87
36692;BME280;22678;52.052;4.242;2022-08-30T10:40:22;102255.09;;;26.11;37.50
36692;BME280;22678;52.052;4.242;2022-08-30T10:43:18;102261.03;;;26.18;37.35
36692;BME280;22678;52.052;4.242;2022-08-30T10:45:47;102261.03;;;26.18;36.62
36692;BME280;22678;52.052;4.242;2022-08-30T10:48:26;102268.00;;;26.22;36.42
36692;BME280;22678;52.052;4.242;2022-08-30T10:50:55;102260.00;;;26.20;36.51
36692;BME280;22678;52.052;4.242;2022-08-30T10:53:42;102258.81;;;26.26;36.62
36692;BME280;22678;52.052;4.242;2022-08-30T10:56:13;102265.38;;;26.38;36.20
36692;BME280;22678;52.052;4.242;2022-08-30T10:58:40;102269.13;;;26.35;35.21
36692;BME280;22678;52.052;4.242;2022-08-30T11:12:50;102262.25;;;26.46;35.87
36692;BME280;22678;52.052;4.242;2022-08-30T11:15:23;102252.78;;;26.38;36.03
36692;BME280;22678;52.052;4.242;2022-08-30T11:20:52;102256.25;;;26.40;36.47
36692;BME280;22678;52.052;4.242;2022-08-30T11:23:31;102261.50;;;26.44;36.08
36692;BME280;22678;52.052;4.242;2022-08-30T11:26:05;102261.31;;;26.47;36.33
36692;BME280;22678;52.052;4.242;2022-08-30T11:33:58;102259.28;;;26.52;35.72
36692;BME280;22678;52.052;4.242;2022-08-30T11:41:37;102247.72;;;26.83;35.80
36692;BME280;22678;52.052;4.242;2022-08-30T11:44:28;102258.72;;;26.96;35.45
36692;BME280;22678;52.052;4.242;2022-08-30T11:47:00;102242.69;;;26.93;34.67
36692;BME280;22678;52.052;4.242;2022-08-30T11:50:07;102252.19;;;27.16;34.97
36692;BME280;22678;52.052;4.242;2022-08-30T11:52:53;102245.88;;;27.33;34.36
36692;BME280;22678;52.052;4.242;2022-08-30T11:55:34;102238.44;;;27.37;34.17
36692;BME280;22678;52.052;4.242;2022-08-30T11:58:12;102222.41;;;27.34;34.00
36692;BME280;22678;52.052;4.242;2022-08-30T12:00:42;102213.09;;;27.39;34.62
36692;BME280;22678;52.052;4.242;2022-08-30T12:06:00;102236.25;;;27.59;34.60
36692;BME280;22678;52.052;4.242;2022-08-30T12:13:58;102220.53;;;27.66;34.17
36692;BME280;22678;52.052;4.242;2022-08-30T12:16:38;102234.13;;;27.80;34.14
36692;BME280;22678;52.052;4.242;2022-08-30T12:19:27;102232.59;;;27.91;34.18
36692;BME280;22678;52.052;4.242;2022-08-30T12:22:03;102245.59;;;28.00;33.49
36692;BME280;22678;52.052;4.242;2022-08-30T12:24:33;102204.09;;;27.85;33.66
36692;BME280;22678;52.052;4.242;2022-08-30T12:29:57;102232.41;;;28.10;33.15
36692;BME280;22678;52.052;4.242;2022-08-30T12:32:24;102247.84;;;28.08;33.07
36692;BME280;22678;52.052;4.242;2022-08-30T12:35:02;102233.06;;;27.99;32.72
36692;BME280;22678;52.052;4.242;2022-08-30T12:37:37;102221.97;;;27.88;33.17
36692;BME280;22678;52.052;4.242;2022-08-30T12:40:20;102226.78;;;27.83;33.06
36692;BME280;22678;52.052;4.242;2022-08-30T12:43:17;102232.03;;;27.86;32.72
36692;BME280;22678;52.052;4.242;2022-08-30T12:45:46;102213.53;;;27.78;32.30
36692;BME280;22678;52.052;4.242;2022-08-30T12:48:15;102228.34;;;27.87;32.91
36692;BME280;22678;52.052;4.242;2022-08-30T12:50:49;102226.25;;;27.92;32.24
36692;BME280;22678;52.052;4.242;2022-08-30T12:53:28;102230.94;;;27.88;32.33
36692;BME280;22678;52.052;4.242;2022-08-30T12:56:00;102230.94;;;27.88;32.00
36692;BME280;22678;52.052;4.242;2022-08-30T12:58:48;102214.25;;;27.82;31.52
36692;BME280;22678;52.052;4.242;2022-08-30T13:03:57;102216.75;;;27.85;31.89
36692;BME280;22678;52.052;4.242;2022-08-30T13:09:01;102216.38;;;27.91;31.71
36692;BME280;22678;52.052;4.242;2022-08-30T13:11:27;102213.88;;;27.88;31.31
36692;BME280;22678;52.052;4.242;2022-08-30T13:14:18;102221.50;;;27.95;31.04
36692;BME280;22678;52.052;4.242;2022-08-30T13:16:39;102207.94;;;27.97;31.27
36692;BME280;22678;52.052;4.242;2022-08-30T13:19:30;102208.16;;;28.08;31.28
36692;BME280;22678;52.052;4.242;2022-08-30T13:21:57;102206.63;;;28.19;31.06
36692;BME280;22678;52.052;4.242;2022-08-30T13:24:23;102213.97;;;28.31;30.83
36692;BME280;22678;52.052;4.242;2022-08-30T13:26:49;102208.38;;;28.34;31.14
36692;BME280;22678;52.052;4.242;2022-08-30T13:29:17;102185.97;;;28.32;31.15
36692;BME280;22678;52.052;4.242;2022-08-30T13:31:43;102207.47;;;28.19;31.09
36692;BME280;22678;52.052;4.242;2022-08-30T13:34:08;102193.19;;;28.17;31.30
36692;BME280;22678;52.052;4.242;2022-08-30T13:36:37;102196.03;;;28.30;31.61
36692;BME280;22678;52.052;4.242;2022-08-30T13:39:04;102202.59;;;28.40;31.71
36692;BME280;22678;52.052;4.242;2022-08-30T13:41:30;102189.06;;;28.40;31.70
36692;BME280;22678;52.052;4.242;2022-08-30T13:43:55;102195.66;;;28.51;31.58
36692;BME280;22678;52.052;4.242;2022-08-30T13:46:21;102190.22;;;28.51;31.63
36692;BME280;22678;52.052;4.242;2022-08-30T13:48:51;102192.34;;;28.45;31.84
36692;BME280;22678;52.052;4.242;2022-08-30T13:51:18;102197.84;;;28.44;31.73
36692;BME280;22678;52.052;4.242;2022-08-30T13:53:44;102209.28;;;28.49;31.88
36692;BME280;22678;52.052;4.242;2022-08-30T13:56:09;102192.34;;;28.45;31.59
36692;BME280;22678;52.052;4.242;2022-08-30T13:58:34;102189.63;;;28.45;32.04
36692;BME280;22678;52.052;4.242;2022-08-30T14:00:59;102199.69;;;28.43;31.78
36692;BME280;22678;52.052;4.242;2022-08-30T14:03:25;102207.03;;;28.41;31.30
36692;BME280;22678;52.052;4.242;2022-08-30T14:05:51;102200.84;;;28.25;32.08
36692;BME280;22678;52.052;4.242;2022-08-30T14:08:21;102192.72;;;28.25;32.39
36692;BME280;22678;52.052;4.242;2022-08-30T14:10:47;102186.53;;;28.23;32.22
36692;BME280;22678;52.052;4.242;2022-08-30T14:13:12;102191.97;;;28.23;32.17